Alexandria, LA (71309)

3:38 PM CDT on August 27, 2016 (GMT -0500)
Cherokee Village | | Change Station

Elev 77 ft 31.26 °N, 92.48 °W | Updated 6 seconds ago

Light Rain
Light Rain Mist
75.7 °F
Feels Like 74 °F
N
0.0
Wind Variable Wind from SE
Gusts 0.0 mph

Today
High -- | Low -- °F
--% Chance of Precip.
Yesterday
High -- | Low -- °F
Precip. -- in
Pressure 29.96 in
Visibility 1.5 miles
Clouds Few 1700 ft
Mostly Cloudy 3900 ft
Overcast 8500 ft
Heat Index 74 °F
Dew Point 76 °F
Humidity 99%
Rainfall 0.64 in
Snow Depth Not available.
6:43 AM 7:38 PM
Waning Crescent, 21% visible
SPECI KAEX 272032Z 08016G22KT 1 1/2SM VCTS -RA BR FEW017 BKN039 OVC085 23/22 A2996 RMK AO2 LTG DSNT E-SW P0017 T02330222
Pressure 29.96 in
Visibility 1.5 miles
Clouds Few 1700 ft
Mostly Cloudy 3900 ft
Overcast 8500 ft
Heat Index 74 °F
Dew Point 76 °F
Humidity 99%
Rainfall 0.64 in
Snow Depth Not available.
6:43 AM 7:38 PM
Waning Crescent, 21% visible
SPECI KAEX 272032Z 08016G22KT 1 1/2SM VCTS -RA BR FEW017 BKN039 OVC085 23/22 A2996 RMK AO2 LTG DSNT E-SW P0017 T02330222

10-Day Weather Forecast

Almanac

Astronomy

Aug. 27, 2016 Rise Set
Actual Time
Civil Twilight
Nautical Twilight
Astronomical Twilight
Moon
Length of Visible Light
Length of Day
Tomorrow will be .
, % of the Moon is Illuminated

Today's Extremes

State Highs State Lows

Community

WunderPhotos

Upload Photos

1,935,434 photos uploaded!

WunderBlog® & News

Nearby

Air Quality

  Air Quality AQ Index Pollutant
Not available.

Snow Depth

Station Depth Elevation

Earthquake Activity

City Distance Mag. Time & Date
Minimum magnitude displayed is 2.5.

Coastal Water Temperatures

Place Temperature

Stations

Nearby Weather Stations

Station Location Temp. Windchill Dew Point Humidity Wind Precip. Elev Updated Type
                   

Watches & Warnings

There are currently no watches in effect.